Time;durP1;ratioP1;P1;durP2;ratioP2;P2;SDS_P1;SDS_P2;PMS_P1;PMS_P2;Temp;Humidity;BMP_temperature;BMP_pressure;BME280_temperature;BME280_humidity;BME280_pressure;Samples;Min_cycle;Max_cycle;Signal;HPM_P1;HPM_P2
2023/03/07 00:00:55;;;;;;;24.67;11.43;;;1.50;99.90;;;;;;7810807;28;20189;-91
2023/03/07 00:04:45;;;;;;;19.50;9.87;;;1.50;99.90;;;;;;7810740;28;20786;-91
2023/03/07 00:08:31;;;;;;;23.20;11.77;;;1.40;99.90;;;;;;7810714;28;20246;-92
2023/03/07 00:12:17;;;;;;;23.07;11.50;;;1.40;99.90;;;;;;7810624;28;20260;-91
2023/03/07 00:16:05;;;;;;;22.80;11.30;;;1.50;99.90;;;;;;7810476;28;20178;-92
2023/03/07 00:19:50;;;;;;;24.00;12.10;;;1.50;99.90;;;;;;7810170;28;20174;-90
2023/03/07 00:23:38;;;;;;;22.33;11.63;;;1.50;99.90;;;;;;7810413;28;20239;-90
2023/03/07 00:27:24;;;;;;;23.13;11.17;;;1.50;99.90;;;;;;7810053;28;20551;-91
2023/03/07 00:31:10;;;;;;;26.03;11.67;;;1.50;99.90;;;;;;7810107;28;20207;-91
2023/03/07 00:34:58;;;;;;;21.40;11.23;;;1.70;99.90;;;;;;7810304;28;20341;-90
2023/03/07 00:38:44;;;;;;;21.90;11.13;;;1.60;99.90;;;;;;7809635;28;20186;-90
2023/03/07 00:42:30;;;;;;;22.00;11.87;;;1.60;99.90;;;;;;7809927;28;20768;-91
2023/03/07 00:46:17;;;;;;;22.83;11.07;;;1.60;99.90;;;;;;7809690;28;20187;-91
2023/03/07 00:50:03;;;;;;;24.50;11.73;;;1.70;99.90;;;;;;7809939;28;20199;-93
2023/03/07 00:53:50;;;;;;;25.47;11.83;;;1.60;99.90;;;;;;7809383;28;20195;-92
2023/03/07 00:57:35;;;;;;;22.80;11.97;;;1.60;99.90;;;;;;7809858;28;20179;-92
2023/03/07 01:01:23;;;;;;;20.93;11.23;;;1.60;99.90;;;;;;7809554;28;20266;-92
2023/03/07 01:05:09;;;;;;;22.93;11.60;;;1.50;99.90;;;;;;7809454;28;20198;-91
2023/03/07 01:08:57;;;;;;;22.73;11.37;;;1.70;99.90;;;;;;7808249;28;20403;-92
2023/03/07 01:12:43;;;;;;;22.90;11.33;;;1.60;99.90;;;;;;7814992;28;20252;-91
2023/03/07 01:16:34;;;;;;;23.37;11.57;;;1.70;99.90;;;;;;7810420;28;20269;-92
2023/03/07 01:20:20;;;;;;;23.07;11.60;;;1.70;99.90;;;;;;7810711;28;20192;-92
2023/03/07 01:24:08;;;;;;;23.53;11.03;;;1.60;99.90;;;;;;7809400;28;20194;-91
2023/03/07 01:27:54;;;;;;;23.67;11.80;;;1.60;99.90;;;;;;7809305;28;20187;-92
2023/03/07 01:31:41;;;;;;;20.87;10.43;;;1.60;99.90;;;;;;7809063;28;20177;-92
2023/03/07 01:35:27;;;;;;;20.73;11.17;;;1.60;99.90;;;;;;7843970;28;20198;-93
2023/03/07 01:39:15;;;;;;;20.37;10.70;;;1.60;99.90;;;;;;7816584;28;20181;-93
2023/03/07 01:43:30;;;;;;;26.53;11.53;;;1.60;99.90;;;;;;7809134;28;20206;-91
2023/03/07 01:47:15;;;;;;;21.60;10.83;;;1.60;99.90;;;;;;7823348;28;20216;-92
2023/03/07 01:51:01;;;;;;;22.00;11.07;;;1.60;99.90;;;;;;7839960;28;20257;-91
2023/03/07 01:54:53;;;;;;;22.90;12.03;;;1.60;99.90;;;;;;7840793;28;20208;-92
2023/03/07 01:58:39;;;;;;;25.27;12.33;;;1.70;99.90;;;;;;7840321;28;20178;-93
2023/03/07 02:02:26;;;;;;;21.07;10.33;;;1.70;99.90;;;;;;7839687;28;20202;-93
2023/03/07 02:06:12;;;;;;;21.43;11.17;;;1.70;99.90;;;;;;7824283;28;20187;-91
2023/03/07 02:09:59;;;;;;;23.00;11.03;;;1.60;99.90;;;;;;7828082;28;20502;-93
2023/03/07 02:13:45;;;;;;;19.57;10.63;;;1.80;99.90;;;;;;7839957;28;20202;-92
2023/03/07 02:17:31;;;;;;;21.37;11.03;;;1.60;99.90;;;;;;7819701;28;20732;-92
2023/03/07 02:21:37;;;;;;;24.53;11.53;;;1.60;99.90;;;;;;7808521;28;20194;-92
2023/03/07 02:25:54;;;;;;;19.37;11.03;;;1.60;99.90;;;;;;7816963;28;20206;-92
2023/03/07 02:29:40;;;;;;;24.07;11.90;;;1.60;99.90;;;;;;7814491;28;20202;-92
2023/03/07 02:33:27;;;;;;;23.00;10.90;;;1.80;99.90;;;;;;7825182;28;20256;-93
2023/03/07 02:37:21;;;;;;;26.70;11.87;;;1.70;99.90;;;;;;7837919;28;20182;-91
2023/03/07 02:41:09;;;;;;;20.00;10.73;;;1.60;99.90;;;;;;7838793;28;20716;-92
2023/03/07 02:44:57;;;;;;;21.43;10.83;;;1.60;99.90;;;;;;7838413;28;20702;-92
2023/03/07 02:48:43;;;;;;;19.97;10.80;;;1.60;99.90;;;;;;7838852;28;20213;-91
2023/03/07 02:52:29;;;;;;;21.83;11.10;;;1.60;99.90;;;;;;7838731;28;20284;-91
2023/03/07 02:56:14;;;;;;;21.50;10.93;;;1.60;99.90;;;;;;7839341;28;20373;-92
2023/03/07 03:00:01;;;;;;;20.23;10.70;;;1.60;99.90;;;;;;7824151;28;20605;-92
2023/03/07 03:03:46;;;;;;;21.93;10.20;;;1.70;99.90;;;;;;7838309;28;20293;-92
2023/03/07 03:07:32;;;;;;;19.60;10.87;;;1.50;99.90;;;;;;7837980;28;20193;-92
2023/03/07 03:11:17;;;;;;;22.23;10.90;;;1.60;99.90;;;;;;7825438;28;20682;-92
2023/03/07 03:15:04;;;;;;;19.17;10.97;;;1.60;99.90;;;;;;7838382;28;20197;-92
2023/03/07 03:18:49;;;;;;;19.73;10.63;;;1.60;99.90;;;;;;7831193;28;20179;-92
2023/03/07 03:22:40;;;;;;;21.90;10.87;;;1.60;99.90;;;;;;7808297;28;20199;-92
2023/03/07 03:26:25;;;;;;;19.97;10.23;;;1.50;99.90;;;;;;7806524;28;20178;-92
2023/03/07 03:30:12;;;;;;;20.90;11.07;;;1.60;99.90;;;;;;7806751;28;20337;-92
2023/03/07 03:33:58;;;;;;;20.37;10.57;;;1.50;99.90;;;;;;7821761;28;20206;-91
2023/03/07 03:37:44;;;;;;;21.83;11.10;;;1.60;99.90;;;;;;7843314;28;20185;-91
2023/03/07 03:41:29;;;;;;;21.87;11.57;;;1.50;99.90;;;;;;7826889;28;20183;-91
2023/03/07 03:45:15;;;;;;;19.53;10.83;;;1.40;99.90;;;;;;7843000;28;20206;-92
2023/03/07 03:49:01;;;;;;;24.33;11.73;;;1.40;99.90;;;;;;7838803;28;20210;-91
2023/03/07 03:52:46;;;;;;;21.00;10.93;;;1.40;99.90;;;;;;7846418;28;20209;-92
2023/03/07 03:56:32;;;;;;;23.60;11.43;;;1.30;99.90;;;;;;7837025;28;20216;-92
2023/03/07 04:00:19;;;;;;;23.27;11.90;;;1.30;99.90;;;;;;7837640;28;20471;-91
2023/03/07 04:04:05;;;;;;;20.40;10.80;;;1.30;99.90;;;;;;7838353;28;20308;-92
2023/03/07 04:07:50;;;;;;;21.53;11.13;;;1.40;99.90;;;;;;7837165;28;20186;-92
2023/03/07 04:11:36;;;;;;;21.37;10.80;;;1.30;99.90;;;;;;7837831;28;20209;-92
2023/03/07 04:15:21;;;;;;;19.33;10.53;;;1.40;99.90;;;;;;7838103;28;20198;-91
2023/03/07 04:19:11;;;;;;;20.57;10.73;;;1.30;99.90;;;;;;7838075;28;20621;-92
2023/03/07 04:22:57;;;;;;;21.57;11.90;;;1.30;99.90;;;;;;7838992;28;20281;-92
2023/03/07 04:26:42;;;;;;;24.30;12.13;;;1.30;99.90;;;;;;7837310;28;20182;-92
2023/03/07 04:30:28;;;;;;;22.93;11.93;;;1.30;99.90;;;;;;7837654;28;20212;-92
2023/03/07 04:34:14;;;;;;;22.77;11.90;;;1.30;99.90;;;;;;7858865;28;20206;-92
2023/03/07 04:37:59;;;;;;;22.30;11.87;;;1.30;99.90;;;;;;7857907;28;20198;-91
2023/03/07 04:41:45;;;;;;;24.90;11.93;;;1.20;99.90;;;;;;7837119;28;20291;-91
2023/03/07 04:45:33;;;;;;;22.57;11.97;;;1.20;99.90;;;;;;7841291;28;20233;-93
2023/03/07 04:49:19;;;;;;;25.20;12.97;;;1.20;99.90;;;;;;7843448;28;20201;-92
2023/03/07 04:53:05;;;;;;;26.90;14.13;;;1.20;99.90;;;;;;7843706;28;20247;-92
2023/03/07 04:56:50;;;;;;;29.50;14.87;;;1.20;99.90;;;;;;7830990;28;20183;-92
2023/03/07 05:00:36;;;;;;;27.87;15.10;;;1.20;99.90;;;;;;7833612;28;20186;-93
2023/03/07 05:04:21;;;;;;;29.10;15.30;;;1.20;99.90;;;;;;7842859;28;20210;-92
2023/03/07 05:08:07;;;;;;;26.40;13.83;;;1.30;99.90;;;;;;7842867;28;20386;-92
2023/03/07 05:11:55;;;;;;;28.20;14.53;;;1.20;99.90;;;;;;7843470;28;20178;-92
2023/03/07 05:15:41;;;;;;;31.30;15.30;;;1.20;99.90;;;;;;7843276;28;20186;-92
2023/03/07 05:19:26;;;;;;;31.40;15.07;;;1.20;99.90;;;;;;7842490;28;20193;-92
2023/03/07 05:23:12;;;;;;;28.63;15.20;;;1.30;99.90;;;;;;7842933;28;20297;-91
2023/03/07 05:26:58;;;;;;;30.57;15.50;;;1.20;99.90;;;;;;7843165;28;20265;-92
2023/03/07 05:30:45;;;;;;;27.43;13.50;;;1.30;99.90;;;;;;7842505;28;20213;-91
2023/03/07 05:34:30;;;;;;;30.10;15.07;;;1.20;99.90;;;;;;7827160;28;20202;-90
2023/03/07 05:38:16;;;;;;;24.80;13.53;;;1.30;99.90;;;;;;7838524;28;20214;-92
2023/03/07 05:42:02;;;;;;;25.50;12.93;;;1.30;99.90;;;;;;7811401;28;20183;-92
2023/03/07 05:45:47;;;;;;;25.93;13.30;;;1.30;99.90;;;;;;7838571;28;20749;-92
2023/03/07 05:49:33;;;;;;;24.53;13.07;;;1.30;99.90;;;;;;7843807;28;20213;-92
2023/03/07 05:53:19;;;;;;;24.90;12.47;;;1.30;99.90;;;;;;7842188;28;20691;-91
2023/03/07 05:57:04;;;;;;;26.90;13.33;;;1.30;99.90;;;;;;7836799;28;20266;-91
2023/03/07 06:00:50;;;;;;;24.47;12.47;;;1.30;99.90;;;;;;7810949;28;20210;-92
2023/03/07 06:04:36;;;;;;;26.60;13.53;;;1.30;99.90;;;;;;7813727;28;20213;-84
2023/03/07 06:08:21;;;;;;;26.87;12.07;;;1.30;99.90;;;;;;7842334;28;20201;-91
2023/03/07 06:12:09;;;;;;;24.37;11.60;;;1.40;99.90;;;;;;7843073;28;20236;-92
2023/03/07 06:15:55;;;;;;;18.03;9.27;;;1.40;99.90;;;;;;7844179;28;20239;-91
2023/03/07 06:19:40;;;;;;;16.27;8.50;;;1.50;99.90;;;;;;7839027;28;20272;-92
2023/03/07 06:23:28;;;;;;;15.77;8.13;;;1.50;99.90;;;;;;7838542;28;20706;-92
2023/03/07 06:27:13;;;;;;;15.93;8.10;;;1.60;99.90;;;;;;7837851;28;20448;-92
2023/03/07 06:30:59;;;;;;;17.03;8.87;;;1.60;99.90;;;;;;7844531;28;20208;-91
2023/03/07 06:34:45;;;;;;;14.97;7.93;;;1.70;99.90;;;;;;7840165;28;20275;-92
2023/03/07 06:38:30;;;;;;;15.30;7.67;;;1.70;99.90;;;;;;7836473;28;20227;-91
2023/03/07 06:42:16;;;;;;;19.50;8.07;;;1.60;99.90;;;;;;7836842;28;20202;-91
2023/03/07 06:46:02;;;;;;;15.43;8.00;;;1.60;99.90;;;;;;7836263;28;20639;-91
2023/03/07 06:49:47;;;;;;;14.53;7.67;;;1.70;99.90;;;;;;7837877;28;20713;-91
2023/03/07 06:53:33;;;;;;;15.43;7.93;;;1.70;99.90;;;;;;7837069;28;20205;-92
2023/03/07 06:57:19;;;;;;;17.07;8.63;;;1.60;99.90;;;;;;7836182;28;20182;-91
2023/03/07 07:01:05;;;;;;;15.63;8.33;;;1.80;99.90;;;;;;7837945;28;20253;-91
2023/03/07 07:04:50;;;;;;;16.93;8.50;;;1.70;99.90;;;;;;7836531;28;20201;-91
2023/03/07 07:08:36;;;;;;;15.13;7.33;;;1.70;99.90;;;;;;7835330;28;20220;-91
2023/03/07 07:12:22;;;;;;;17.83;8.43;;;1.70;99.90;;;;;;7836083;28;20197;-93
2023/03/07 07:16:08;;;;;;;14.70;7.67;;;1.70;99.90;;;;;;7835406;28;20259;-88
2023/03/07 07:19:54;;;;;;;13.60;7.60;;;1.70;99.90;;;;;;7837435;28;20261;-91
2023/03/07 07:23:40;;;;;;;13.20;7.70;;;1.70;99.90;;;;;;7837111;28;20212;-93
2023/03/07 07:27:27;;;;;;;16.47;8.57;;;1.90;99.90;;;;;;7836178;28;20174;-91
2023/03/07 07:31:12;;;;;;;15.63;7.83;;;1.80;99.90;;;;;;7838495;28;20722;-92
2023/03/07 07:34:58;;;;;;;15.07;7.90;;;1.80;99.90;;;;;;7849384;28;20189;-91
2023/03/07 07:38:43;;;;;;;15.47;7.40;;;1.80;99.90;;;;;;7867618;28;20189;-91
2023/03/07 07:42:29;;;;;;;16.00;8.50;;;1.90;99.90;;;;;;7836832;28;20292;-91
2023/03/07 07:46:15;;;;;;;13.47;7.30;;;1.80;99.90;;;;;;7836810;28;20178;-92
2023/03/07 07:50:01;;;;;;;12.67;7.20;;;1.90;99.90;;;;;;7836443;28;20209;-93
2023/03/07 07:53:47;;;;;;;15.23;7.20;;;1.80;99.90;;;;;;7836751;28;20259;-91
2023/03/07 07:57:32;;;;;;;14.63;7.43;;;2.00;99.90;;;;;;7838253;28;20639;-93
2023/03/07 08:01:21;;;;;;;15.00;7.87;;;1.80;99.90;;;;;;7839594;28;20246;-92
2023/03/07 08:05:09;;;;;;;14.43;7.20;;;1.90;99.90;;;;;;7840789;28;20290;-92
2023/03/07 08:08:55;;;;;;;16.10;8.00;;;1.90;99.90;;;;;;7843041;28;20248;-92
2023/03/07 08:12:42;;;;;;;14.73;7.17;;;1.90;99.90;;;;;;7842438;28;20221;-92
2023/03/07 08:16:28;;;;;;;15.60;7.77;;;1.90;99.90;;;;;;7842039;28;20181;-92
2023/03/07 08:20:14;;;;;;;13.20;7.40;;;1.90;99.90;;;;;;7847177;28;20174;-92
2023/03/07 08:23:59;;;;;;;12.90;6.90;;;1.90;99.90;;;;;;7849580;28;20248;-91
2023/03/07 08:27:45;;;;;;;14.67;7.20;;;1.90;99.90;;;;;;7848073;28;20178;-93
2023/03/07 08:31:31;;;;;;;12.90;6.93;;;1.90;99.90;;;;;;7847800;28;20261;-91
2023/03/07 08:35:17;;;;;;;12.83;6.67;;;1.90;99.90;;;;;;7845827;28;20539;-92
2023/03/07 08:39:15;;;;;;;12.70;6.33;;;1.90;99.90;;;;;;7846758;28;20182;-91
2023/03/07 08:43:00;;;;;;;12.73;7.33;;;2.00;99.90;;;;;;7854871;28;20198;-92
2023/03/07 08:46:46;;;;;;;11.70;6.73;;;2.10;99.90;;;;;;7844569;28;20628;-91
2023/03/07 08:50:32;;;;;;;11.80;6.57;;;2.00;99.90;;;;;;7843749;28;20510;-90
2023/03/07 08:54:17;;;;;;;11.67;6.37;;;2.10;99.90;;;;;;7843781;28;20201;-91
2023/03/07 08:58:03;;;;;;;11.70;6.73;;;2.10;99.90;;;;;;7844435;28;20174;-91
2023/03/07 09:01:49;;;;;;;11.20;6.33;;;2.20;99.90;;;;;;7845063;28;20228;-91
2023/03/07 09:05:38;;;;;;;11.43;6.70;;;2.30;99.90;;;;;;7844967;28;20201;-91
2023/03/07 09:09:23;;;;;;;12.77;7.13;;;2.30;99.90;;;;;;7847439;28;20206;-92
2023/03/07 09:13:10;;;;;;;13.70;7.57;;;2.30;99.90;;;;;;7845666;28;20228;-92
2023/03/07 09:16:55;;;;;;;11.10;5.80;;;2.40;99.90;;;;;;7842155;28;20244;-90
2023/03/07 09:20:41;;;;;;;9.30;5.90;;;2.50;99.90;;;;;;7843344;28;20190;-90
2023/03/07 09:24:26;;;;;;;9.00;4.90;;;2.60;99.90;;;;;;7843080;28;20202;-92
2023/03/07 09:28:12;;;;;;;8.37;5.03;;;2.60;99.90;;;;;;7842331;28;20185;-86
2023/03/07 09:32:02;;;;;;;8.93;4.90;;;2.70;99.90;;;;;;7843261;28;20187;-92
2023/03/07 09:35:48;;;;;;;11.40;7.53;;;2.70;99.90;;;;;;7860342;28;20190;-93
2023/03/07 09:39:34;;;;;;;9.10;5.53;;;2.80;99.90;;;;;;7866787;28;20185;-92
2023/03/07 09:43:22;;;;;;;8.80;5.03;;;2.80;99.90;;;;;;7842226;28;20237;-91
2023/03/07 09:47:10;;;;;;;7.90;4.77;;;2.90;99.90;;;;;;7841367;28;20804;-93
2023/03/07 09:51:20;;;;;;;8.07;5.17;;;2.90;99.90;;;;;;7841212;28;20275;-92
2023/03/07 09:55:13;;;;;;;8.83;5.03;;;2.90;99.90;;;;;;7840744;28;20754;-91
2023/03/07 09:59:51;;;;;;;11.77;7.63;;;3.00;99.90;;;;;;7840734;28;20273;-92
2023/03/07 10:03:55;;;;;;;76.63;40.27;;;3.00;99.90;;;;;;7840612;28;20263;-91
2023/03/07 10:07:41;;;;;;;18.47;12.47;;;3.00;99.90;;;;;;7841143;28;20173;-91
2023/03/07 10:11:29;;;;;;;21.57;13.97;;;3.00;99.90;;;;;;7841264;28;20309;-91
2023/03/07 10:15:34;;;;;;;13.57;7.70;;;3.10;99.90;;;;;;7839667;28;20296;-91
2023/03/07 10:19:40;;;;;;;9.50;5.90;;;3.20;99.90;;;;;;7840322;28;20561;-91
2023/03/07 10:23:48;;;;;;;10.27;5.67;;;3.20;99.90;;;;;;7840478;28;20664;-91
2023/03/07 10:27:34;;;;;;;9.93;5.80;;;3.20;99.90;;;;;;7839721;28;20623;-91
2023/03/07 10:31:35;;;;;;;9.10;5.37;;;3.30;99.90;;;;;;7839640;28;20224;-91
2023/03/07 10:35:28;;;;;;;9.47;5.73;;;3.30;99.90;;;;;;7839375;28;20204;-91
2023/03/07 10:39:38;;;;;;;9.00;5.90;;;3.30;99.90;;;;;;7839023;28;20272;-91
2023/03/07 10:43:27;;;;;;;8.90;5.77;;;3.40;99.90;;;;;;7839526;28;20202;-91
2023/03/07 10:47:29;;;;;;;9.10;5.23;;;3.50;99.90;;;;;;7839465;28;20644;-91
2023/03/07 10:51:26;;;;;;;10.77;5.90;;;3.30;99.90;;;;;;7839381;28;20206;-91
2023/03/07 10:55:30;;;;;;;9.40;5.80;;;3.40;99.90;;;;;;7838744;28;20197;-91
2023/03/07 10:59:24;;;;;;;9.90;6.00;;;3.50;99.90;;;;;;7838741;28;20186;-92
2023/03/07 11:03:44;;;;;;;12.23;7.90;;;3.60;99.90;;;;;;7838863;28;20705;-91
2023/03/07 11:07:33;;;;;;;23.70;12.90;;;3.50;99.90;;;;;;7839116;28;20651;-91
2023/03/07 11:11:25;;;;;;;10.80;5.67;;;3.60;99.90;;;;;;7838748;28;20310;-91
2023/03/07 11:15:20;;;;;;;8.30;5.47;;;3.90;99.90;;;;;;7841814;28;20229;-92
2023/03/07 11:19:47;;;;;;;13.13;7.13;;;3.80;99.90;;;;;;7840180;28;20619;-92
2023/03/07 11:23:36;;;;;;;9.70;6.20;;;3.90;99.90;;;;;;7833997;28;20236;-91
2023/03/07 11:27:33;;;;;;;10.73;6.20;;;3.90;99.90;;;;;;7841195;28;20182;-92
2023/03/07 11:31:25;;;;;;;8.43;5.57;;;4.00;99.90;;;;;;7838479;28;20206;-91
2023/03/07 11:35:18;;;;;;;10.10;5.57;;;4.10;99.90;;;;;;7853144;28;20201;-93
2023/03/07 11:39:27;;;;;;;11.87;6.70;;;4.10;99.90;;;;;;7865315;28;20194;-91
2023/03/07 11:43:20;;;;;;;11.43;6.83;;;4.20;99.90;;;;;;7835953;28;20215;-91
2023/03/07 11:47:22;;;;;;;11.17;6.80;;;4.20;99.90;;;;;;7839496;28;20170;-83
2023/03/07 11:51:24;;;;;;;10.40;6.67;;;4.20;99.90;;;;;;7838572;28;20240;-83
2023/03/07 11:55:46;;;;;;;7.23;3.87;;;4.20;99.90;;;;;;7841819;28;20201;-82
2023/03/07 11:59:58;;;;;;;10.80;7.30;;;4.20;99.90;;;;;;7842186;28;20408;-91
2023/03/07 12:04:22;;;;;;;11.50;5.93;;;4.30;99.90;;;;;;7844182;28;20198;-91
2023/03/07 12:08:26;;;;;;;10.83;6.13;;;4.30;99.90;;;;;;7844023;28;20202;-91
2023/03/07 12:12:27;;;;;;;11.33;6.03;;;4.30;99.90;;;;;;7843824;28;20174;-91
2023/03/07 12:16:43;;;;;;;9.73;5.83;;;4.30;99.90;;;;;;7843134;28;20173;-91
2023/03/07 12:20:50;;;;;;;9.87;5.70;;;4.30;99.90;;;;;;7843333;28;20240;-91
2023/03/07 12:25:02;;;;;;;7.63;4.93;;;4.40;99.90;;;;;;7843621;28;20694;-91
2023/03/07 12:29:05;;;;;;;10.63;5.50;;;4.50;99.90;;;;;;7843817;28;20201;-92
2023/03/07 12:32:52;;;;;;;10.17;5.27;;;4.50;99.90;;;;;;7843681;28;20252;-92
2023/03/07 12:36:42;;;;;;;10.57;5.37;;;4.60;99.90;;;;;;7855410;28;20192;-94
2023/03/07 12:41:13;;;;;;;14.60;5.33;;;4.60;99.90;;;;;;7848210;28;20174;-91
2023/03/07 12:45:09;;;;;;;9.93;5.43;;;4.60;99.90;;;;;;7840627;28;20216;-91
2023/03/07 12:49:04;;;;;;;9.50;4.97;;;4.60;99.90;;;;;;7823892;28;20371;-91
2023/03/07 12:53:21;;;;;;;12.57;6.27;;;4.60;99.90;;;;;;7823768;28;20301;-91
2023/03/07 12:57:16;;;;;;;11.47;5.40;;;4.70;99.90;;;;;;7823940;28;20189;-91
2023/03/07 13:01:08;;;;;;;14.73;6.67;;;4.80;99.90;;;;;;7823704;28;20191;-91
2023/03/07 13:04:54;;;;;;;7.27;5.17;;;4.70;99.90;;;;;;7822215;28;20481;-91
2023/03/07 13:08:42;;;;;;;9.83;5.30;;;4.70;99.90;;;;;;7823555;28;20198;-92
2023/03/07 13:12:28;;;;;;;9.40;5.57;;;4.70;99.90;;;;;;7823882;28;20229;-91
2023/03/07 13:16:35;;;;;;;11.07;5.37;;;4.70;99.90;;;;;;7823833;28;20286;-93
2023/03/07 13:20:27;;;;;;;10.33;5.40;;;4.80;99.90;;;;;;7844967;28;20182;-91
2023/03/07 13:24:35;;;;;;;8.90;5.03;;;4.80;99.90;;;;;;7843668;28;20194;-91
2023/03/07 13:28:33;;;;;;;7.63;4.70;;;4.90;99.90;;;;;;7843913;28;20210;-92
2023/03/07 13:32:49;;;;;;;8.67;4.47;;;4.80;99.90;;;;;;7844455;28;20706;-93
2023/03/07 13:36:37;;;;;;;8.60;5.20;;;4.90;99.90;;;;;;7879109;28;20178;-95
2023/03/07 13:40:25;;;;;;;9.07;5.60;;;5.00;99.90;;;;;;7848011;28;20185;-92
2023/03/07 13:44:29;;;;;;;8.37;4.57;;;5.00;99.90;;;;;;7842474;28;20205;-91
2023/03/07 13:48:47;;;;;;;8.03;4.50;;;5.00;99.90;;;;;;7849219;28;20173;-92
2023/03/07 13:52:37;;;;;;;7.93;4.87;;;5.10;99.90;;;;;;7842258;28;20210;-91
2023/03/07 13:56:27;;;;;;;7.40;4.20;;;5.10;99.90;;;;;;7841820;28;20220;-91
2023/03/07 14:00:23;;;;;;;10.63;5.63;;;5.20;99.90;;;;;;7841673;28;20166;-92
2023/03/07 14:04:18;;;;;;;10.37;5.53;;;5.20;99.90;;;;;;7841679;28;20205;-92
2023/03/07 14:08:09;;;;;;;8.80;5.17;;;5.10;99.90;;;;;;7842110;28;20174;-91
2023/03/07 14:12:13;;;;;;;10.17;4.77;;;5.30;99.90;;;;;;7842192;28;20263;-92
2023/03/07 14:16:33;;;;;;;28.03;14.17;;;5.20;99.90;;;;;;7841838;28;20712;-92
2023/03/07 14:20:46;;;;;;;17.53;5.63;;;5.30;99.90;;;;;;7842878;28;20178;-92
2023/03/07 14:24:45;;;;;;;7.50;5.17;;;5.20;99.90;;;;;;7842513;28;20190;-92
2023/03/07 14:28:30;;;;;;;9.60;5.50;;;5.30;99.90;;;;;;7857053;28;20177;-91
2023/03/07 14:36:57;;;;;;;11.60;5.87;;;5.30;99.90;;;;;;7844015;28;20235;-90
2023/03/07 14:40:56;;;;;;;10.00;4.93;;;5.20;99.90;;;;;;7841148;28;20209;-91
2023/03/07 14:50:00;;;;;;;7.70;4.60;;;5.30;99.90;;;;;;7810514;28;20281;-91
2023/03/07 14:53:47;;;;;;;7.97;4.67;;;5.20;99.90;;;;;;7808832;28;20226;-91
2023/03/07 14:57:38;;;;;;;8.87;4.63;;;5.20;99.90;;;;;;7808367;28;20193;-91
2023/03/07 15:01:34;;;;;;;7.87;4.77;;;5.20;99.90;;;;;;7807934;28;20186;-91
2023/03/07 15:05:26;;;;;;;8.70;5.03;;;5.10;99.90;;;;;;7808634;28;20190;-91
2023/03/07 15:09:40;;;;;;;9.03;4.97;;;5.10;99.90;;;;;;7808061;28;20225;-91
2023/03/07 15:13:36;;;;;;;8.40;4.80;;;5.10;99.90;;;;;;7815122;28;20711;-92
2023/03/07 15:17:28;;;;;;;7.47;4.30;;;5.10;99.90;;;;;;7821982;28;20169;-88
2023/03/07 15:21:27;;;;;;;6.87;4.07;;;5.10;99.90;;;;;;7839743;28;20171;-92
2023/03/07 15:25:21;;;;;;;6.73;4.10;;;5.00;99.90;;;;;;7838958;28;20201;-92
2023/03/07 15:29:20;;;;;;;9.13;4.53;;;5.20;99.90;;;;;;7838001;28;20595;-91
2023/03/07 15:33:15;;;;;;;6.00;4.03;;;5.10;99.90;;;;;;7849362;28;20210;-94
2023/03/07 15:37:22;;;;;;;7.90;4.33;;;5.10;99.90;;;;;;7862741;28;20212;-89
2023/03/07 15:41:32;;;;;;;7.50;4.57;;;5.10;99.90;;;;;;7837653;28;20181;-91
2023/03/07 15:45:26;;;;;;;8.20;4.93;;;5.20;99.90;;;;;;7838729;28;20225;-91
2023/03/07 15:49:28;;;;;;;6.67;4.03;;;5.20;99.90;;;;;;7839231;28;20210;-91
2023/03/07 15:53:24;;;;;;;6.47;4.17;;;5.20;99.90;;;;;;7840357;28;20200;-91
2023/03/07 15:57:33;;;;;;;8.13;5.93;;;5.10;99.90;;;;;;7838773;28;20173;-90
2023/03/07 16:01:26;;;;;;;7.10;4.03;;;5.10;99.90;;;;;;7839107;28;20177;-92
2023/03/07 16:05:35;;;;;;;6.00;3.53;;;5.10;99.90;;;;;;7839471;28;20200;-91
2023/03/07 16:09:34;;;;;;;6.83;3.90;;;5.00;99.90;;;;;;7838674;28;20201;-91
2023/03/07 16:13:30;;;;;;;6.33;4.20;;;5.00;99.90;;;;;;7839260;28;20263;-91
2023/03/07 16:17:27;;;;;;;6.33;4.00;;;5.10;99.90;;;;;;7842106;28;20181;-91
2023/03/07 16:21:20;;;;;;;7.90;4.47;;;5.00;99.90;;;;;;7848493;28;20196;-91
2023/03/07 16:25:19;;;;;;;6.37;3.70;;;5.00;99.90;;;;;;7843137;28;20299;-91
2023/03/07 16:29:07;;;;;;;6.93;4.53;;;5.00;99.90;;;;;;7841872;28;20289;-91
2023/03/07 16:32:54;;;;;;;9.17;5.70;;;4.90;99.90;;;;;;7842396;28;20198;-91
2023/03/07 16:36:41;;;;;;;6.53;3.77;;;5.00;99.90;;;;;;7843008;28;20540;-92
2023/03/07 16:40:28;;;;;;;7.50;3.77;;;5.00;99.90;;;;;;7842425;28;20189;-91
2023/03/07 16:44:19;;;;;;;6.33;3.83;;;5.00;99.90;;;;;;7844398;28;20202;-91
2023/03/07 16:48:11;;;;;;;5.13;3.50;;;5.00;99.90;;;;;;7843422;28;20166;-91
2023/03/07 16:51:57;;;;;;;6.73;4.03;;;5.00;99.90;;;;;;7843208;28;20216;-92
2023/03/07 16:55:43;;;;;;;7.23;3.90;;;5.00;99.90;;;;;;7844262;28;20213;-92
2023/03/07 16:59:34;;;;;;;5.77;4.00;;;5.00;99.90;;;;;;7843960;28;20170;-93
2023/03/07 17:03:21;;;;;;;6.57;4.43;;;5.10;99.90;;;;;;7846167;28;20541;-91
2023/03/07 17:07:23;;;;;;;7.83;4.70;;;5.00;99.90;;;;;;7889438;28;20261;-92
2023/03/07 17:11:37;;;;;;;6.43;3.83;;;5.00;99.90;;;;;;7876450;28;20205;-91
2023/03/07 17:15:29;;;;;;;10.40;4.70;;;5.10;99.90;;;;;;7872228;28;20423;-91
2023/03/07 17:19:27;;;;;;;6.77;4.33;;;5.00;99.90;;;;;;7867824;28;20388;-91
2023/03/07 17:23:12;;;;;;;8.77;4.13;;;5.00;99.90;;;;;;7842615;28;20202;-91
2023/03/07 17:27:02;;;;;;;10.33;7.20;;;5.00;99.90;;;;;;7843339;28;20189;-91
2023/03/07 17:30:48;;;;;;;9.33;6.47;;;5.00;99.90;;;;;;7846923;28;20194;-94
2023/03/07 17:34:35;;;;;;;9.47;6.50;;;4.80;99.90;;;;;;7883138;28;20189;-93
2023/03/07 17:38:21;;;;;;;34.70;18.10;;;4.40;99.90;;;;;;7863982;28;20198;-91
2023/03/07 17:42:07;;;;;;;28.27;17.77;;;4.10;99.90;;;;;;7851453;28;20182;-91
2023/03/07 17:45:53;;;;;;;15.20;8.53;;;3.90;99.90;;;;;;7840032;28;20217;-83
2023/03/07 17:49:39;;;;;;;10.80;7.77;;;3.70;99.90;;;;;;7838848;28;20202;-83
2023/03/07 17:53:24;;;;;;;35.80;15.97;;;3.70;99.90;;;;;;7840160;28;20257;-91
2023/03/07 17:57:10;;;;;;;42.50;17.87;;;3.60;99.90;;;;;;7840454;28;20236;-91
2023/03/07 18:00:57;;;;;;;57.40;21.97;;;3.60;99.90;;;;;;7816416;28;20186;-87
2023/03/07 18:05:01;;;;;;;52.33;22.97;;;3.50;99.90;;;;;;7809370;28;20206;-91
2023/03/07 18:08:47;;;;;;;22.83;11.27;;;3.60;99.90;;;;;;7810089;28;20256;-91
2023/03/07 18:12:32;;;;;;;18.03;10.17;;;3.60;99.90;;;;;;7809399;28;20214;-90
2023/03/07 18:16:18;;;;;;;6.57;4.77;;;3.50;99.90;;;;;;7808692;28;20178;-91
2023/03/07 18:20:09;;;;;;;6.77;5.30;;;3.40;99.90;;;;;;7808554;28;20179;-91
2023/03/07 18:24:25;;;;;;;3.43;2.20;;;3.10;99.90;;;;;;7808654;28;20759;-91
2023/03/07 18:28:12;;;;;;;4.53;4.03;;;3.20;99.90;;;;;;7808887;28;20181;-91
2023/03/07 18:32:01;;;;;;;5.03;3.43;;;3.20;99.90;;;;;;7808532;28;20202;-91
2023/03/07 18:35:46;;;;;;;3.80;3.20;;;3.20;99.90;;;;;;7808154;28;20179;-91
2023/03/07 18:39:34;;;;;;;6.67;3.70;;;3.10;99.90;;;;;;7808305;28;20214;-90
2023/03/07 18:43:21;;;;;;;3.70;3.00;;;3.30;99.90;;;;;;7808164;28;20203;-91
2023/03/07 18:47:12;;;;;;;102.33;46.90;;;3.20;99.90;;;;;;7808484;28;20203;-90
2023/03/07 18:51:00;;;;;;;27.37;17.00;;;3.30;99.90;;;;;;7808244;28;20274;-90
2023/03/07 18:54:47;;;;;;;27.33;16.60;;;3.20;99.90;;;;;;7808407;28;20203;-93
2023/03/07 18:58:33;;;;;;;20.67;13.90;;;3.00;99.90;;;;;;7807646;28;20175;-90
2023/03/07 19:02:38;;;;;;;8.27;5.60;;;3.20;99.90;;;;;;7806517;28;20194;-91
2023/03/07 19:06:27;;;;;;;3.93;2.87;;;3.20;99.90;;;;;;7807913;28;20174;-89
2023/03/07 19:10:17;;;;;;;9.00;5.23;;;3.20;99.90;;;;;;7807701;28;20203;-90
2023/03/07 19:14:05;;;;;;;10.57;5.87;;;3.10;99.90;;;;;;7807393;28;20214;-91
2023/03/07 19:17:51;;;;;;;6.67;4.70;;;3.10;99.90;;;;;;7807628;28;20563;-90
2023/03/07 19:21:37;;;;;;;9.33;7.00;;;3.10;99.90;;;;;;7807886;28;20178;-90
2023/03/07 19:25:22;;;;;;;7.17;5.17;;;3.00;99.90;;;;;;7809044;28;20201;-91
2023/03/07 19:29:11;;;;;;;4.20;3.30;;;3.20;99.90;;;;;;7820278;28;20186;-92
2023/03/07 19:33:06;;;;;;;16.13;11.80;;;3.20;99.90;;;;;;7874547;28;20231;-90
2023/03/07 19:37:04;;;;;;;8.83;6.40;;;3.20;99.90;;;;;;7840724;28;20185;-91
2023/03/07 19:40:55;;;;;;;8.80;6.80;;;3.10;99.90;;;;;;7839420;28;20178;-91
2023/03/07 19:44:41;;;;;;;4.27;3.50;;;3.00;99.90;;;;;;7831703;28;20230;-92
2023/03/07 19:48:47;;;;;;;4.67;3.10;;;3.00;99.90;;;;;;7812527;28;20201;-91
2023/03/07 19:52:32;;;;;;;3.80;3.40;;;3.00;99.90;;;;;;7816201;28;20210;-89
2023/03/07 19:56:27;;;;;;;4.37;3.03;;;3.10;99.90;;;;;;7825863;28;20216;-91
2023/03/07 20:00:25;;;;;;;4.20;3.77;;;3.10;99.90;;;;;;7829458;28;20182;-91
2023/03/07 20:04:13;;;;;;;6.63;5.23;;;3.10;99.90;;;;;;7817451;28;20205;-91
2023/03/07 20:07:58;;;;;;;7.83;4.67;;;3.00;99.90;;;;;;7829074;28;20185;-91
2023/03/07 20:11:44;;;;;;;7.77;4.00;;;3.00;99.90;;;;;;7822708;28;20218;-91